Time;durP1;ratioP1;P1;durP2;ratioP2;P2;SDS_P1;SDS_P2;PMS_P1;PMS_P2;Temp;Humidity;BMP_temperature;BMP_pressure;BME280_temperature;BME280_humidity;BME280_pressure;Samples;Min_cycle;Max_cycle;Signal;HPM_P1;HPM_P2
2021/09/07 00:00:37;;;;;;;7.78;6.97;;;;;;;;;;5033729;28;20017;-58
2021/09/07 00:03:03;;;;;;;10.77;7.93;;;;;;;;;;5034374;28;20367;-58
2021/09/07 00:05:29;;;;;;;8.73;7.63;;;;;;;;;;5016542;28;20033;-58
2021/09/07 00:07:55;;;;;;;9.55;7.43;;;;;;;;;;5033388;28;20443;-58
2021/09/07 00:10:21;;;;;;;11.70;8.07;;;;;;;;;;5033722;28;20030;-58
2021/09/07 00:12:49;;;;;;;10.43;7.80;;;;;;;;;;5033541;28;20053;-58
2021/09/07 00:15:16;;;;;;;9.32;7.28;;;;;;;;;;5034297;28;20032;-58
2021/09/07 00:17:50;;;;;;;10.75;7.95;;;;;;;;;;5034157;28;20033;-58
2021/09/07 00:20:16;;;;;;;16.80;8.30;;;;;;;;;;5033621;28;20022;-58
2021/09/07 00:22:42;;;;;;;9.50;8.23;;;;;;;;;;5033561;28;20108;-58
2021/09/07 00:25:09;;;;;;;13.45;8.35;;;;;;;;;;5033223;28;20464;-58
2021/09/07 00:27:35;;;;;;;9.95;8.93;;;;;;;;;;5033697;28;20025;-58
2021/09/07 00:30:01;;;;;;;9.88;7.57;;;;;;;;;;5033361;28;20152;-58
2021/09/07 00:32:27;;;;;;;15.00;8.07;;;;;;;;;;5033517;28;20025;-58
2021/09/07 00:34:53;;;;;;;8.68;7.05;;;;;;;;;;5033428;28;20025;-58
2021/09/07 00:37:19;;;;;;;13.45;8.73;;;;;;;;;;5033340;28;20520;-58
2021/09/07 00:39:45;;;;;;;10.00;8.52;;;;;;;;;;5033470;28;20033;-58
2021/09/07 00:42:11;;;;;;;9.48;7.93;;;;;;;;;;5034017;28;20104;-58
2021/09/07 00:44:37;;;;;;;10.93;8.80;;;;;;;;;;5033850;28;20021;-58
2021/09/07 00:47:07;;;;;;;9.60;8.70;;;;;;;;;;4999455;28;20033;-58
2021/09/07 00:49:33;;;;;;;8.73;7.80;;;;;;;;;;5033065;28;20073;-58
2021/09/07 00:52:00;;;;;;;9.52;7.75;;;;;;;;;;5016229;28;20395;-58
2021/09/07 00:54:27;;;;;;;10.43;9.18;;;;;;;;;;5033475;28;20053;-58
2021/09/07 00:56:54;;;;;;;13.30;8.73;;;;;;;;;;5015504;28;20060;-58
2021/09/07 00:59:21;;;;;;;10.30;7.10;;;;;;;;;;5033683;28;20369;-58
2021/09/07 01:01:48;;;;;;;10.32;8.38;;;;;;;;;;5033267;28;20030;-58
2021/09/07 01:04:16;;;;;;;11.15;8.70;;;;;;;;;;5032923;28;20033;-58
2021/09/07 01:06:42;;;;;;;11.05;7.75;;;;;;;;;;5032835;28;20025;-58
2021/09/07 01:09:08;;;;;;;9.13;7.72;;;;;;;;;;5015377;28;20032;-58
2021/09/07 01:11:34;;;;;;;9.00;7.70;;;;;;;;;;5015333;28;20026;-59
2021/09/07 01:14:01;;;;;;;8.65;7.75;;;;;;;;;;5033194;28;20045;-59
2021/09/07 01:16:27;;;;;;;8.93;7.78;;;;;;;;;;5033102;28;20116;-59
2021/09/07 01:18:53;;;;;;;10.90;8.02;;;;;;;;;;5033089;28;20033;-58
2021/09/07 01:21:19;;;;;;;10.02;8.25;;;;;;;;;;5033052;28;20028;-58
2021/09/07 01:23:47;;;;;;;12.57;9.68;;;;;;;;;;5033605;28;20395;-58
2021/09/07 01:26:18;;;;;;;8.48;7.22;;;;;;;;;;5017580;28;20463;-58
2021/09/07 01:28:43;;;;;;;;;;;;;;;;;;5037056;28;20026;-57
2021/09/07 01:31:10;;;;;;;11.60;8.38;;;;;;;;;;5018730;28;19908;-58
2021/09/07 01:33:37;;;;;;;10.05;8.95;;;;;;;;;;5036593;28;20109;-58
2021/09/07 01:36:03;;;;;;;20.05;10.23;;;;;;;;;;5036982;28;20029;-58
2021/09/07 01:38:30;;;;;;;10.85;9.07;;;;;;;;;;5036356;28;20033;-58
2021/09/07 01:40:56;;;;;;;11.60;9.30;;;;;;;;;;5036674;28;20021;-58
2021/09/07 01:43:22;;;;;;;12.02;7.68;;;;;;;;;;5036353;28;20114;-58
2021/09/07 01:45:49;;;;;;;10.00;8.80;;;;;;;;;;5035914;28;20028;-58
2021/09/07 01:48:15;;;;;;;11.55;9.27;;;;;;;;;;5036162;28;20486;-58
2021/09/07 01:50:42;;;;;;;11.73;9.23;;;;;;;;;;5018488;28;20470;-58
2021/09/07 01:53:08;;;;;;;9.35;8.35;;;;;;;;;;5036952;28;20036;-58
2021/09/07 01:55:34;;;;;;;11.52;9.55;;;;;;;;;;5036331;28;20037;-58
2021/09/07 01:58:03;;;;;;;10.38;8.95;;;;;;;;;;5018391;28;20025;-58
2021/09/07 02:00:29;;;;;;;13.10;9.55;;;;;;;;;;5035925;28;20026;-58
2021/09/07 02:02:55;;;;;;;11.13;8.60;;;;;;;;;;5018172;28;20467;-58
2021/09/07 02:05:21;;;;;;;11.43;10.13;;;;;;;;;;5035871;28;20111;-58
2021/09/07 02:07:47;;;;;;;13.73;8.50;;;;;;;;;;5035526;28;20032;-58
2021/09/07 02:10:13;;;;;;;9.57;8.57;;;;;;;;;;5035838;28;20025;-58
2021/09/07 02:12:39;;;;;;;11.02;9.80;;;;;;;;;;5035869;28;20431;-58
2021/09/07 02:15:06;;;;;;;10.63;9.52;;;;;;;;;;5036258;28;20400;-58
2021/09/07 02:17:32;;;;;;;11.80;9.52;;;;;;;;;;5017910;28;20048;-58
2021/09/07 02:20:01;;;;;;;13.52;10.00;;;;;;;;;;5035751;28;20112;-58
2021/09/07 02:22:27;;;;;;;10.60;8.88;;;;;;;;;;5035915;28;20460;-58
2021/09/07 02:24:53;;;;;;;11.35;9.68;;;;;;;;;;5035867;28;20029;-58
2021/09/07 02:27:20;;;;;;;13.52;10.75;;;;;;;;;;5035224;28;20030;-58
2021/09/07 02:29:46;;;;;;;16.45;11.88;;;;;;;;;;5035940;28;20450;-58
2021/09/07 02:32:12;;;;;;;11.02;9.90;;;;;;;;;;5035702;28;20079;-58
2021/09/07 02:34:38;;;;;;;14.15;10.55;;;;;;;;;;5035343;28;20048;-58
2021/09/07 02:37:04;;;;;;;11.77;10.55;;;;;;;;;;5035002;28;20025;-58
2021/09/07 02:39:31;;;;;;;14.02;11.10;;;;;;;;;;5035784;28;20062;-58
2021/09/07 02:41:57;;;;;;;12.23;10.30;;;;;;;;;;5035443;28;20029;-58
2021/09/07 02:44:23;;;;;;;18.48;11.60;;;;;;;;;;5035935;28;20096;-58
2021/09/07 02:46:49;;;;;;;13.68;11.32;;;;;;;;;;5035114;28;20026;-58
2021/09/07 02:49:15;;;;;;;13.32;11.27;;;;;;;;;;5035085;28;20030;-58
2021/09/07 02:51:43;;;;;;;12.10;10.88;;;;;;;;;;5017574;28;20025;-58
2021/09/07 02:54:09;;;;;;;14.05;10.90;;;;;;;;;;5017027;28;20028;-58
2021/09/07 02:56:35;;;;;;;11.50;9.52;;;;;;;;;;5034857;28;20029;-58
2021/09/07 02:59:01;;;;;;;16.52;11.50;;;;;;;;;;5017487;28;20126;-58
2021/09/07 03:01:27;;;;;;;13.82;10.13;;;;;;;;;;5035073;28;20456;-58
2021/09/07 03:03:54;;;;;;;12.85;10.27;;;;;;;;;;5035381;28;20065;-58
2021/09/07 03:06:20;;;;;;;14.68;11.75;;;;;;;;;;5034866;28;20428;-58
2021/09/07 03:08:46;;;;;;;12.77;10.10;;;;;;;;;;5034966;28;20029;-58
2021/09/07 03:11:12;;;;;;;14.13;12.32;;;;;;;;;;5034434;28;20387;-58
2021/09/07 03:13:39;;;;;;;13.75;11.18;;;;;;;;;;5017594;28;20053;-58
2021/09/07 03:16:05;;;;;;;12.50;11.20;;;;;;;;;;5016804;28;20029;-58
2021/09/07 03:18:34;;;;;;;18.00;12.23;;;;;;;;;;5034850;28;20030;-58
2021/09/07 03:21:00;;;;;;;11.27;10.00;;;;;;;;;;5034253;28;20025;-58
2021/09/07 03:23:26;;;;;;;12.88;11.27;;;;;;;;;;5000566;28;20135;-58
2021/09/07 03:25:52;;;;;;;13.93;10.80;;;;;;;;;;5034656;28;20116;-58
2021/09/07 03:28:18;;;;;;;14.80;11.43;;;;;;;;;;5034325;28;20455;-58
2021/09/07 03:30:44;;;;;;;14.20;11.13;;;;;;;;;;5034540;28;20060;-58
2021/09/07 03:33:10;;;;;;;12.65;10.90;;;;;;;;;;5034460;28;20101;-58
2021/09/07 03:35:36;;;;;;;15.63;10.77;;;;;;;;;;5016817;28;20029;-58
2021/09/07 03:38:03;;;;;;;15.70;10.27;;;;;;;;;;5034212;28;20037;-58
2021/09/07 03:40:29;;;;;;;11.88;10.35;;;;;;;;;;5016538;28;20026;-58
2021/09/07 03:42:55;;;;;;;18.45;10.07;;;;;;;;;;5017358;28;20368;-58
2021/09/07 03:45:21;;;;;;;11.32;9.13;;;;;;;;;;5016440;28;20017;-58
2021/09/07 03:47:49;;;;;;;12.27;10.52;;;;;;;;;;5033604;28;20049;-58
2021/09/07 03:50:16;;;;;;;13.82;11.52;;;;;;;;;;5033983;28;20026;-58
2021/09/07 03:52:42;;;;;;;13.15;10.95;;;;;;;;;;5033926;28;20034;-58
2021/09/07 03:55:09;;;;;;;14.45;11.55;;;;;;;;;;5033945;28;20025;-58
2021/09/07 03:57:35;;;;;;;18.63;11.43;;;;;;;;;;5032759;28;20045;-58
2021/09/07 04:00:01;;;;;;;12.05;10.38;;;;;;;;;;5016389;28;20116;-58
2021/09/07 04:02:27;;;;;;;13.20;10.43;;;;;;;;;;5016763;28;20079;-57
2021/09/07 04:04:54;;;;;;;15.70;11.10;;;;;;;;;;5016193;28;20022;-58
2021/09/07 04:07:20;;;;;;;11.82;10.57;;;;;;;;;;5033764;28;20025;-58
2021/09/07 04:09:46;;;;;;;11.68;10.48;;;;;;;;;;5033762;28;20029;-58
2021/09/07 04:12:12;;;;;;;11.65;10.40;;;;;;;;;;5033881;28;20056;-58
2021/09/07 04:14:38;;;;;;;10.43;9.32;;;;;;;;;;5016560;28;20367;-58
2021/09/07 04:17:06;;;;;;;13.40;11.13;;;;;;;;;;5033284;28;20123;-58
2021/09/07 04:19:32;;;;;;;12.85;11.48;;;;;;;;;;5016390;28;20036;-58
2021/09/07 04:21:58;;;;;;;13.18;11.18;;;;;;;;;;5033740;28;20474;-58
2021/09/07 04:24:24;;;;;;;14.10;11.43;;;;;;;;;;5034403;28;20052;-58
2021/09/07 04:26:53;;;;;;;17.73;11.40;;;;;;;;;;5034121;28;20060;-58
2021/09/07 04:29:25;;;;;;;12.18;10.98;;;;;;;;;;5033909;28;20017;-58
2021/09/07 04:31:51;;;;;;;13.20;11.00;;;;;;;;;;5034030;28;20044;-58
2021/09/07 04:34:17;;;;;;;15.85;11.52;;;;;;;;;;5033132;28;20112;-58
2021/09/07 04:36:43;;;;;;;11.90;10.65;;;;;;;;;;5033381;28;20026;-57
2021/09/07 04:39:09;;;;;;;12.82;11.45;;;;;;;;;;5033298;28;20038;-58
2021/09/07 04:41:35;;;;;;;17.30;11.32;;;;;;;;;;5033517;28;20044;-58
2021/09/07 04:44:03;;;;;;;11.38;10.20;;;;;;;;;;5015548;28;20033;-58
2021/09/07 04:46:29;;;;;;;14.05;10.98;;;;;;;;;;5033469;28;20030;-58
2021/09/07 04:49:00;;;;;;;18.55;11.07;;;;;;;;;;5033361;28;20171;-58
2021/09/07 04:51:26;;;;;;;12.20;10.73;;;;;;;;;;5000303;28;20403;-58
2021/09/07 04:53:57;;;;;;;12.02;10.80;;;;;;;;;;5015642;28;20029;-58
2021/09/07 04:56:23;;;;;;;12.27;11.00;;;;;;;;;;5016387;28;20025;-58
2021/09/07 04:58:49;;;;;;;14.00;10.38;;;;;;;;;;5033465;28;20038;-58
2021/09/07 05:01:15;;;;;;;14.82;11.40;;;;;;;;;;5035862;28;20423;-58
2021/09/07 05:03:41;;;;;;;12.80;10.93;;;;;;;;;;5020250;28;20022;-58
2021/09/07 05:06:07;;;;;;;13.25;10.90;;;;;;;;;;5037397;28;20060;-58
2021/09/07 05:08:33;;;;;;;13.88;11.05;;;;;;;;;;5037827;28;20022;-58
2021/09/07 05:10:59;;;;;;;15.85;11.10;;;;;;;;;;5037045;28;20022;-57
2021/09/07 05:13:25;;;;;;;14.82;12.00;;;;;;;;;;5037114;28;20084;-58
2021/09/07 05:15:51;;;;;;;13.95;10.75;;;;;;;;;;5036846;28;20467;-58
2021/09/07 05:18:17;;;;;;;11.35;9.63;;;;;;;;;;5019173;28;20038;-58
2021/09/07 05:20:43;;;;;;;17.70;10.35;;;;;;;;;;5002574;28;20030;-58
2021/09/07 05:23:09;;;;;;;11.88;10.18;;;;;;;;;;5037345;28;20018;-58
2021/09/07 05:25:35;;;;;;;12.63;10.45;;;;;;;;;;5019817;28;20025;-58
2021/09/07 05:28:01;;;;;;;14.80;10.82;;;;;;;;;;5036680;28;20079;-58
2021/09/07 05:30:27;;;;;;;13.38;11.00;;;;;;;;;;5019064;28;20038;-58
2021/09/07 05:32:53;;;;;;;12.80;10.73;;;;;;;;;;5037153;28;20395;-58
2021/09/07 05:35:19;;;;;;;12.20;9.75;;;;;;;;;;5037287;28;20029;-58
2021/09/07 05:37:45;;;;;;;15.48;11.30;;;;;;;;;;5036228;28;20526;-58
2021/09/07 05:40:12;;;;;;;12.13;10.15;;;;;;;;;;5036983;28;20033;-58
2021/09/07 05:42:42;;;;;;;14.02;11.02;;;;;;;;;;5018704;28;20041;-58
2021/09/07 05:45:08;;;;;;;19.83;12.98;;;;;;;;;;5036702;28;20029;-58
2021/09/07 05:47:34;;;;;;;12.95;10.85;;;;;;;;;;5036795;28;20033;-58
2021/09/07 05:50:00;;;;;;;13.18;10.55;;;;;;;;;;5018373;28;20026;-58
2021/09/07 05:52:30;;;;;;;13.00;11.52;;;;;;;;;;5035863;28;20463;-58
2021/09/07 05:54:56;;;;;;;15.40;12.02;;;;;;;;;;5036895;28;20025;-58
2021/09/07 05:57:22;;;;;;;14.43;11.90;;;;;;;;;;5036079;28;20040;-58
2021/09/07 05:59:48;;;;;;;14.20;10.88;;;;;;;;;;5036149;28;20095;-58
2021/09/07 06:02:14;;;;;;;15.02;12.45;;;;;;;;;;5036425;28;20116;-58
2021/09/07 06:04:40;;;;;;;14.82;10.55;;;;;;;;;;5035722;28;20407;-58
2021/09/07 06:07:06;;;;;;;11.00;9.25;;;;;;;;;;5018123;28;20033;-57
2021/09/07 06:09:32;;;;;;;11.80;10.38;;;;;;;;;;5036138;28;20037;-58
2021/09/07 06:11:58;;;;;;;13.00;11.20;;;;;;;;;;5035493;28;20025;-58
2021/09/07 06:14:24;;;;;;;12.75;10.90;;;;;;;;;;5035772;28;20025;-57
2021/09/07 06:16:50;;;;;;;14.23;10.95;;;;;;;;;;5035725;28;20394;-58
2021/09/07 06:19:18;;;;;;;13.15;10.80;;;;;;;;;;5001772;28;20116;-58
2021/09/07 06:21:44;;;;;;;13.95;10.65;;;;;;;;;;5035722;28;20025;-58
2021/09/07 06:24:10;;;;;;;11.32;10.07;;;;;;;;;;5035608;28;20031;-58
2021/09/07 06:26:36;;;;;;;14.02;12.55;;;;;;;;;;5035544;28;20029;-58
2021/09/07 06:29:05;;;;;;;13.18;11.25;;;;;;;;;;5035403;28;20435;-58
2021/09/07 06:31:31;;;;;;;11.88;10.52;;;;;;;;;;5034892;28;20036;-58
2021/09/07 06:33:57;;;;;;;11.68;10.18;;;;;;;;;;5018086;28;20021;-58
2021/09/07 06:36:23;;;;;;;13.90;11.82;;;;;;;;;;5036099;28;20029;-58
2021/09/07 06:38:49;;;;;;;16.60;11.35;;;;;;;;;;5035360;28;20037;-58
2021/09/07 06:41:15;;;;;;;13.18;11.82;;;;;;;;;;5035060;28;20026;-58
2021/09/07 06:43:41;;;;;;;15.75;11.07;;;;;;;;;;5035305;28;20036;-58
2021/09/07 06:46:08;;;;;;;16.98;12.30;;;;;;;;;;5035741;28;20416;-58
2021/09/07 06:48:33;;;;;;;13.40;12.02;;;;;;;;;;5017845;28;20379;-58
2021/09/07 06:51:02;;;;;;;15.05;12.02;;;;;;;;;;5017382;28;20033;-58
2021/09/07 06:53:28;;;;;;;12.77;11.55;;;;;;;;;;5035934;28;20368;-58
2021/09/07 06:55:54;;;;;;;14.40;11.27;;;;;;;;;;5034880;28;20029;-58
2021/09/07 06:58:20;;;;;;;14.40;11.55;;;;;;;;;;5034976;28;20034;-58
2021/09/07 07:00:46;;;;;;;12.85;11.05;;;;;;;;;;5034943;28;20022;-58
2021/09/07 07:03:12;;;;;;;12.75;11.43;;;;;;;;;;5035534;28;20030;-58
2021/09/07 07:05:38;;;;;;;13.57;12.23;;;;;;;;;;5034477;28;20029;-58
2021/09/07 07:08:04;;;;;;;16.00;12.85;;;;;;;;;;5034418;28;20065;-58
2021/09/07 07:10:30;;;;;;;13.70;12.07;;;;;;;;;;5034785;28;20026;-58
2021/09/07 07:12:56;;;;;;;13.15;11.85;;;;;;;;;;5034489;28;20049;-58
2021/09/07 07:15:22;;;;;;;12.88;11.55;;;;;;;;;;5034139;28;20032;-58
2021/09/07 07:17:49;;;;;;;17.27;12.57;;;;;;;;;;5035026;28;20067;-58
2021/09/07 07:20:16;;;;;;;14.63;12.07;;;;;;;;;;5016908;28;20021;-58
2021/09/07 07:22:44;;;;;;;16.45;13.57;;;;;;;;;;5033985;28;20096;-58
2021/09/07 07:25:10;;;;;;;15.85;12.77;;;;;;;;;;5034491;28;20095;-58
2021/09/07 07:27:41;;;;;;;13.02;11.55;;;;;;;;;;5034318;28;20057;-58
2021/09/07 07:30:07;;;;;;;;;;;;;;;;;;5034846;28;20104;-58
2021/09/07 07:32:33;;;;;;;14.95;11.35;;;;;;;;;;5016670;28;19947;-58
2021/09/07 07:34:59;;;;;;;14.88;10.98;;;;;;;;;;5034599;28;20025;-58
2021/09/07 07:37:25;;;;;;;10.85;9.27;;;;;;;;;;5017164;28;20032;-58
2021/09/07 07:39:51;;;;;;;12.13;10.25;;;;;;;;;;5033875;28;20384;-58
2021/09/07 07:42:17;;;;;;;15.10;10.43;;;;;;;;;;5035018;28;20025;-57
2021/09/07 07:44:44;;;;;;;14.40;9.73;;;;;;;;;;5034109;28;20387;-58
2021/09/07 07:47:10;;;;;;;11.45;9.13;;;;;;;;;;5034399;28;20030;-58
2021/09/07 07:49:38;;;;;;;13.45;10.07;;;;;;;;;;5034259;28;20021;-58
2021/09/07 07:52:04;;;;;;;13.40;9.40;;;;;;;;;;5034144;28;20366;-59
2021/09/07 07:54:30;;;;;;;11.90;8.40;;;;;;;;;;5033663;28;20431;-59
2021/09/07 07:56:56;;;;;;;12.68;9.85;;;;;;;;;;5034188;28;20025;-59
2021/09/07 07:59:22;;;;;;;9.18;7.97;;;;;;;;;;5016236;28;20030;-59
2021/09/07 08:01:48;;;;;;;10.50;8.60;;;;;;;;;;5016592;28;20032;-59
2021/09/07 08:04:14;;;;;;;9.70;8.38;;;;;;;;;;5034343;28;20529;-59
2021/09/07 08:06:40;;;;;;;12.43;9.15;;;;;;;;;;5033878;28;20030;-59
2021/09/07 08:09:09;;;;;;;11.52;9.52;;;;;;;;;;5034268;28;20055;-59
2021/09/07 08:11:35;;;;;;;16.38;8.95;;;;;;;;;;5016893;28;20029;-59
2021/09/07 08:14:01;;;;;;;13.40;9.98;;;;;;;;;;5034616;28;20058;-59
2021/09/07 08:16:27;;;;;;;17.70;8.70;;;;;;;;;;5033850;28;20030;-58
2021/09/07 08:18:53;;;;;;;13.27;8.52;;;;;;;;;;5033962;28;20026;-59
2021/09/07 08:21:19;;;;;;;15.07;8.38;;;;;;;;;;5016024;28;20460;-59
2021/09/07 08:23:48;;;;;;;12.18;8.38;;;;;;;;;;5016532;28;20025;-59
2021/09/07 08:26:14;;;;;;;10.93;9.10;;;;;;;;;;5033605;28;20026;-59
2021/09/07 08:28:40;;;;;;;10.25;7.53;;;;;;;;;;5034390;28;20333;-59
2021/09/07 08:31:06;;;;;;;10.45;9.35;;;;;;;;;;5032825;28;20037;-59
2021/09/07 08:33:32;;;;;;;9.77;7.90;;;;;;;;;;5033704;28;20080;-59
2021/09/07 08:35:58;;;;;;;11.65;8.80;;;;;;;;;;5036956;28;20032;-59
2021/09/07 08:38:25;;;;;;;10.77;8.10;;;;;;;;;;5019938;28;20080;-59
2021/09/07 08:40:51;;;;;;;10.10;7.10;;;;;;;;;;5037602;28;20490;-59
2021/09/07 08:43:22;;;;;;;13.30;8.75;;;;;;;;;;5037515;28;20072;-59
2021/09/07 08:45:58;;;;;;;10.63;8.30;;;;;;;;;;5037670;28;20021;-59
2021/09/07 08:48:25;;;;;;;11.60;7.95;;;;;;;;;;5037415;28;20407;-59
2021/09/07 08:50:53;;;;;;;11.57;7.93;;;;;;;;;;5037170;28;20116;-59
2021/09/07 08:53:19;;;;;;;9.30;7.47;;;;;;;;;;5037620;28;20017;-59
2021/09/07 08:55:45;;;;;;;10.68;7.40;;;;;;;;;;5037415;28;20079;-59
2021/09/07 08:58:11;;;;;;;9.02;6.57;;;;;;;;;;5037120;28;20033;-59
2021/09/07 09:00:39;;;;;;;8.32;6.88;;;;;;;;;;5037715;28;20029;-59
2021/09/07 09:03:12;;;;;;;9.13;7.97;;;;;;;;;;5037491;28;20100;-59
2021/09/07 09:05:46;;;;;;;9.82;6.95;;;;;;;;;;5037036;28;20013;-59
2021/09/07 09:08:13;;;;;;;14.63;7.28;;;;;;;;;;5037802;28;20040;-59
2021/09/07 09:10:39;;;;;;;8.68;7.03;;;;;;;;;;5037633;28;20029;-59
2021/09/07 09:13:15;;;;;;;11.32;7.47;;;;;;;;;;5037424;28;20046;-59
2021/09/07 09:16:00;;;;;;;13.88;7.28;;;;;;;;;;5037408;28;20132;-59
2021/09/07 09:18:36;;;;;;;10.10;6.80;;;;;;;;;;5019799;28;20359;-59
2021/09/07 09:21:21;;;;;;;7.72;6.80;;;;;;;;;;5019088;28;20029;-59
2021/09/07 09:24:07;;;;;;;7.85;6.72;;;;;;;;;;5037273;28;20165;-59
2021/09/07 09:26:33;;;;;;;12.38;6.90;;;;;;;;;;5036247;28;20040;-59
2021/09/07 09:29:05;;;;;;;6.53;5.75;;;;;;;;;;5037257;28;20026;-59
2021/09/07 09:31:49;;;;;;;7.25;5.57;;;;;;;;;;5020187;28;20161;-59
2021/09/07 09:34:15;;;;;;;8.10;6.13;;;;;;;;;;5036388;28;20498;-59
2021/09/07 09:36:47;;;;;;;10.73;6.65;;;;;;;;;;5019474;28;20073;-59
2021/09/07 09:39:33;;;;;;;6.97;6.15;;;;;;;;;;5036188;28;20026;-59
2021/09/07 09:41:59;;;;;;;5.95;5.20;;;;;;;;;;5036998;28;20372;-59
2021/09/07 09:44:28;;;;;;;5.68;4.80;;;;;;;;;;5036318;28;20124;-59
2021/09/07 09:46:54;;;;;;;9.18;6.30;;;;;;;;;;5017746;28;20021;-59
2021/09/07 09:49:22;;;;;;;8.68;5.25;;;;;;;;;;5018278;28;20024;-59
2021/09/07 09:51:49;;;;;;;10.50;6.10;;;;;;;;;;5036209;28;20029;-59
2021/09/07 09:54:19;;;;;;;7.93;5.30;;;;;;;;;;5036145;28;20032;-60
2021/09/07 09:56:45;;;;;;;8.82;6.07;;;;;;;;;;5035787;28;20029;-60
2021/09/07 09:59:11;;;;;;;7.35;4.88;;;;;;;;;;5036154;28;20022;-60
2021/09/07 10:01:38;;;;;;;10.85;4.55;;;;;;;;;;5036306;28;20481;-60
2021/09/07 10:04:05;;;;;;;6.15;5.03;;;;;;;;;;5036108;28;20032;-60
2021/09/07 10:06:31;;;;;;;5.50;4.32;;;;;;;;;;5036251;28;20025;-60
2021/09/07 10:08:57;;;;;;;8.20;6.00;;;;;;;;;;5035711;28;20029;-60
2021/09/07 10:11:24;;;;;;;5.78;4.85;;;;;;;;;;5036223;28;20025;-60
2021/09/07 10:13:54;;;;;;;5.15;4.47;;;;;;;;;;5036078;28;20045;-60
2021/09/07 10:16:30;;;;;;;6.65;5.65;;;;;;;;;;5035750;28;20026;-60
2021/09/07 10:19:07;;;;;;;6.20;5.05;;;;;;;;;;5036330;28;20088;-60
2021/09/07 10:26:37;;;;;;;8.13;6.85;;;;;;;;;;5035942;28;20037;-60
2021/09/07 10:29:13;;;;;;;7.30;6.07;;;;;;;;;;5035567;28;20478;-60
2021/09/07 10:31:47;;;;;;;8.07;5.20;;;;;;;;;;5035542;28;20026;-60
2021/09/07 10:34:14;;;;;;;7.07;5.95;;;;;;;;;;5017687;28;20032;-60
2021/09/07 10:36:57;;;;;;;6.35;5.72;;;;;;;;;;5036135;28;20029;-60
2021/09/07 10:39:30;;;;;;;5.57;5.00;;;;;;;;;;5035338;28;20360;-60
2021/09/07 10:41:57;;;;;;;8.38;6.10;;;;;;;;;;5035712;28;20018;-60
2021/09/07 10:44:24;;;;;;;5.28;4.70;;;;;;;;;;5017483;28;20464;-60
2021/09/07 10:46:58;;;;;;;7.15;5.15;;;;;;;;;;5035197;28;20030;-60
2021/09/07 10:49:34;;;;;;;6.40;5.40;;;;;;;;;;5035399;28;20049;-60
2021/09/07 10:52:16;;;;;;;6.53;5.35;;;;;;;;;;5035879;28;20028;-60
2021/09/07 10:54:51;;;;;;;7.03;5.40;;;;;;;;;;5035083;28;20021;-60
2021/09/07 10:57:32;;;;;;;6.60;4.85;;;;;;;;;;5017160;28;20026;-60
2021/09/07 11:00:03;;;;;;;6.07;5.47;;;;;;;;;;5017256;28;20029;-60
2021/09/07 11:02:34;;;;;;;6.70;5.40;;;;;;;;;;5034973;28;20025;-60
2021/09/07 11:05:02;;;;;;;5.00;4.47;;;;;;;;;;5035220;28;20018;-60
2021/09/07 11:07:36;;;;;;;6.75;5.22;;;;;;;;;;5034470;28;20570;-60
2021/09/07 11:10:02;;;;;;;5.63;4.75;;;;;;;;;;5035622;28;20029;-60
2021/09/07 11:12:32;;;;;;;5.45;4.78;;;;;;;;;;5034690;28;20053;-60
2021/09/07 11:15:11;;;;;;;8.27;4.60;;;;;;;;;;5034894;28;20029;-60
2021/09/07 11:17:53;;;;;;;6.47;4.63;;;;;;;;;;5034503;28;20454;-60
2021/09/07 11:20:20;;;;;;;5.75;4.40;;;;;;;;;;5034874;28;20029;-60
2021/09/07 11:22:46;;;;;;;5.13;4.32;;;;;;;;;;5034884;28;20080;-60
2021/09/07 11:25:17;;;;;;;7.05;5.32;;;;;;;;;;5034509;28;20025;-60
2021/09/07 11:27:54;;;;;;;5.97;4.88;;;;;;;;;;5034332;28;20026;-60
2021/09/07 11:30:28;;;;;;;5.78;5.18;;;;;;;;;;5035006;28;20021;-60
2021/09/07 11:33:12;;;;;;;6.68;5.53;;;;;;;;;;5035165;28;20018;-60
2021/09/07 11:35:46;;;;;;;6.70;5.32;;;;;;;;;;5034958;28;20380;-60
2021/09/07 11:38:13;;;;;;;6.78;5.00;;;;;;;;;;5033988;28;20386;-59
2021/09/07 11:40:49;;;;;;;7.68;4.57;;;;;;;;;;5034630;28;20021;-60
2021/09/07 11:43:30;;;;;;;5.68;5.00;;;;;;;;;;5035049;28;20034;-60
2021/09/07 11:46:12;;;;;;;10.68;5.45;;;;;;;;;;5034710;28;20427;-60
2021/09/07 11:48:39;;;;;;;5.43;4.85;;;;;;;;;;5016482;28;20112;-59
2021/09/07 11:51:06;;;;;;;5.55;4.43;;;;;;;;;;5016651;28;20419;-59
2021/09/07 11:53:35;;;;;;;6.55;5.38;;;;;;;;;;5034097;28;20026;-60
2021/09/07 11:56:01;;;;;;;6.22;4.63;;;;;;;;;;5033941;28;20093;-60
2021/09/07 11:58:27;;;;;;;5.90;4.55;;;;;;;;;;5033722;28;20463;-60
2021/09/07 12:01:05;;;;;;;5.93;4.30;;;;;;;;;;5034811;28;20028;-59
2021/09/07 12:03:37;;;;;;;6.55;5.03;;;;;;;;;;5034292;28;20029;-59
2021/09/07 12:06:03;;;;;;;6.03;4.97;;;;;;;;;;5033941;28;20028;-60
2021/09/07 12:08:33;;;;;;;7.82;4.63;;;;;;;;;;5016441;28;20049;-59
2021/09/07 12:10:59;;;;;;;8.05;5.20;;;;;;;;;;5034187;28;20033;-59
2021/09/07 12:13:25;;;;;;;7.85;4.95;;;;;;;;;;5034225;28;20088;-59
2021/09/07 12:15:51;;;;;;;6.43;4.88;;;;;;;;;;5033766;28;20030;-60
2021/09/07 12:18:26;;;;;;;7.85;5.25;;;;;;;;;;5033807;28;20030;-59
2021/09/07 12:21:03;;;;;;;6.47;5.47;;;;;;;;;;5034027;28;20044;-59
2021/09/07 12:23:33;;;;;;;8.38;5.20;;;;;;;;;;5016227;28;20049;-59
2021/09/07 12:25:59;;;;;;;6.95;5.32;;;;;;;;;;5033648;28;20025;-60
2021/09/07 12:28:25;;;;;;;6.30;4.38;;;;;;;;;;5033988;28;20024;-60
2021/09/07 12:30:51;;;;;;;5.07;4.40;;;;;;;;;;5033506;28;20026;-59
2021/09/07 12:33:19;;;;;;;5.30;3.92;;;;;;;;;;5033920;28;20476;-60
2021/09/07 12:35:45;;;;;;;7.10;5.25;;;;;;;;;;5016397;28;20026;-58
2021/09/07 12:38:19;;;;;;;7.22;5.30;;;;;;;;;;5033512;28;20375;-59
2021/09/07 12:40:47;;;;;;;6.03;5.20;;;;;;;;;;5033854;28;20029;-59
2021/09/07 12:43:17;;;;;;;5.95;4.70;;;;;;;;;;5034118;28;20036;-59
2021/09/07 12:45:44;;;;;;;6.18;4.70;;;;;;;;;;5032618;28;20502;-58
2021/09/07 12:48:10;;;;;;;9.35;5.13;;;;;;;;;;5033427;28;20415;-58
2021/09/07 12:50:36;;;;;;;6.18;4.65;;;;;;;;;;5033443;28;20148;-58
2021/09/07 12:53:05;;;;;;;7.07;5.13;;;;;;;;;;5033500;28;20064;-59
2021/09/07 12:55:31;;;;;;;6.35;5.18;;;;;;;;;;5032976;28;20491;-59
2021/09/07 12:57:57;;;;;;;6.18;5.43;;;;;;;;;;5033665;28;20026;-59
2021/09/07 13:00:23;;;;;;;7.32;5.00;;;;;;;;;;5033290;28;20027;-59
2021/09/07 13:02:49;;;;;;;6.05;4.78;;;;;;;;;;5034014;28;20380;-58
2021/09/07 13:05:15;;;;;;;7.55;5.50;;;;;;;;;;5034056;28;20033;-58
2021/09/07 13:07:41;;;;;;;6.53;5.65;;;;;;;;;;5033267;28;20483;-58
2021/09/07 13:10:07;;;;;;;6.25;4.85;;;;;;;;;;5032888;28;20032;-58
2021/09/07 13:12:33;;;;;;;5.20;4.72;;;;;;;;;;5033529;28;20068;-58
2021/09/07 13:14:59;;;;;;;6.22;5.63;;;;;;;;;;5033540;28;20022;-58
2021/09/07 13:17:25;;;;;;;6.35;5.00;;;;;;;;;;5033056;28;20032;-58
2021/09/07 13:19:51;;;;;;;5.60;4.93;;;;;;;;;;5033206;28;20033;-58
2021/09/07 13:22:17;;;;;;;6.95;5.55;;;;;;;;;;5036265;28;20028;-59
2021/09/07 13:24:43;;;;;;;5.55;4.60;;;;;;;;;;5036626;28;20025;-59
2021/09/07 13:27:09;;;;;;;5.28;4.78;;;;;;;;;;5037107;28;20037;-58
2021/09/07 13:29:35;;;;;;;6.05;4.93;;;;;;;;;;5036786;28;20025;-59
2021/09/07 13:32:01;;;;;;;6.28;5.10;;;;;;;;;;5037283;28;20030;-59
2021/09/07 13:34:27;;;;;;;6.63;4.97;;;;;;;;;;5036538;28;20156;-58
2021/09/07 13:36:53;;;;;;;6.28;5.00;;;;;;;;;;5036442;28;20026;-59
2021/09/07 13:39:19;;;;;;;7.22;5.10;;;;;;;;;;5036828;28;20482;-59
2021/09/07 13:41:45;;;;;;;5.93;5.03;;;;;;;;;;5036550;28;20022;-59
2021/09/07 13:44:11;;;;;;;5.95;4.80;;;;;;;;;;5036466;28;20029;-59
2021/09/07 13:46:37;;;;;;;7.50;5.05;;;;;;;;;;5036354;28;20479;-59
2021/09/07 13:49:03;;;;;;;5.35;4.60;;;;;;;;;;5036824;28;20185;-59
2021/09/07 13:51:29;;;;;;;6.90;5.47;;;;;;;;;;5036243;28;20030;-59
2021/09/07 13:53:55;;;;;;;6.60;4.75;;;;;;;;;;5036514;28;20036;-59
2021/09/07 13:56:21;;;;;;;10.82;5.22;;;;;;;;;;5036156;28;20076;-59
2021/09/07 13:58:47;;;;;;;8.52;5.70;;;;;;;;;;5036450;28;20029;-59
2021/09/07 14:01:13;;;;;;;5.82;5.00;;;;;;;;;;5035940;28;20522;-59
2021/09/07 14:03:40;;;;;;;6.10;4.75;;;;;;;;;;5036937;28;20101;-59
2021/09/07 14:06:06;;;;;;;4.63;4.05;;;;;;;;;;5035988;28;20053;-59
2021/09/07 14:08:32;;;;;;;6.57;4.55;;;;;;;;;;5036273;28;20361;-59
2021/09/07 14:11:00;;;;;;;6.25;4.55;;;;;;;;;;5035907;28;20025;-59
2021/09/07 14:13:28;;;;;;;7.68;4.35;;;;;;;;;;5036142;28;20379;-59
2021/09/07 14:15:54;;;;;;;5.60;4.32;;;;;;;;;;5035832;28;20090;-59
2021/09/07 14:18:21;;;;;;;6.75;4.47;;;;;;;;;;5035801;28;20033;-59
2021/09/07 14:20:47;;;;;;;7.18;4.82;;;;;;;;;;5035704;28;20025;-60
2021/09/07 14:23:15;;;;;;;6.60;4.80;;;;;;;;;;5036279;28;20022;-59
2021/09/07 14:25:42;;;;;;;6.60;4.82;;;;;;;;;;5036743;28;20456;-59
2021/09/07 14:28:08;;;;;;;7.78;5.85;;;;;;;;;;5035887;28;20099;-59
2021/09/07 14:30:34;;;;;;;6.78;4.65;;;;;;;;;;5017797;28;20081;-59
2021/09/07 14:33:00;;;;;;;6.85;5.35;;;;;;;;;;5035216;28;20032;-59
2021/09/07 14:35:26;;;;;;;6.05;4.82;;;;;;;;;;5035510;28;20076;-59
2021/09/07 14:37:52;;;;;;;7.15;4.30;;;;;;;;;;5035078;28;20092;-59